sensor_id;sensor_type;location;lat;lon;timestamp;temperature;humidity
7588;DHT22;3835;48.850;8.938;2024-02-21T00:00:53;5.60;99.90
7588;DHT22;3835;48.850;8.938;2024-02-21T00:03:20;5.60;99.90
7588;DHT22;3835;48.850;8.938;2024-02-21T00:05:47;5.60;99.90
7588;DHT22;3835;48.850;8.938;2024-02-21T00:08:14;6.20;99.90
7588;DHT22;3835;48.850;8.938;2024-02-21T00:10:41;5.50;99.90
7588;DHT22;3835;48.850;8.938;2024-02-21T00:13:08;5.50;99.90
7588;DHT22;3835;48.850;8.938;2024-02-21T00:15:34;5.60;99.90
7588;DHT22;3835;48.850;8.938;2024-02-21T00:18:03;5.60;99.90
7588;DHT22;3835;48.850;8.938;2024-02-21T00:20:30;5.50;99.90
7588;DHT22;3835;48.850;8.938;2024-02-21T00:22:57;5.60;99.90
7588;DHT22;3835;48.850;8.938;2024-02-21T00:25:24;5.60;99.90
7588;DHT22;3835;48.850;8.938;2024-02-21T00:27:51;5.60;99.90
7588;DHT22;3835;48.850;8.938;2024-02-21T00:30:19;5.60;99.90
7588;DHT22;3835;48.850;8.938;2024-02-21T00:32:46;5.60;99.90
7588;DHT22;3835;48.850;8.938;2024-02-21T00:35:15;5.60;99.90
7588;DHT22;3835;48.850;8.938;2024-02-21T00:37:42;5.60;99.90
7588;DHT22;3835;48.850;8.938;2024-02-21T00:40:09;5.60;99.90
7588;DHT22;3835;48.850;8.938;2024-02-21T00:42:36;5.60;99.90
7588;DHT22;3835;48.850;8.938;2024-02-21T00:45:03;5.70;99.90
7588;DHT22;3835;48.850;8.938;2024-02-21T00:47:30;5.70;99.90
7588;DHT22;3835;48.850;8.938;2024-02-21T00:49:57;5.90;99.90
7588;DHT22;3835;48.850;8.938;2024-02-21T00:52:25;5.80;99.90
7588;DHT22;3835;48.850;8.938;2024-02-21T00:54:52;5.80;99.90
7588;DHT22;3835;48.850;8.938;2024-02-21T00:57:19;5.80;99.90
7588;DHT22;3835;48.850;8.938;2024-02-21T00:59:45;5.80;99.90
7588;DHT22;3835;48.850;8.938;2024-02-21T01:02:12;5.70;99.90
7588;DHT22;3835;48.850;8.938;2024-02-21T01:04:39;6.00;99.90
7588;DHT22;3835;48.850;8.938;2024-02-21T01:07:06;5.70;99.90
7588;DHT22;3835;48.850;8.938;2024-02-21T01:09:34;5.70;99.90
7588;DHT22;3835;48.850;8.938;2024-02-21T01:12:01;5.70;99.90
7588;DHT22;3835;48.850;8.938;2024-02-21T01:14:28;5.70;99.90
7588;DHT22;3835;48.850;8.938;2024-02-21T01:16:54;5.70;99.90
7588;DHT22;3835;48.850;8.938;2024-02-21T01:19:21;5.70;99.90
7588;DHT22;3835;48.850;8.938;2024-02-21T01:21:48;5.60;99.90
7588;DHT22;3835;48.850;8.938;2024-02-21T01:24:15;5.70;99.90
7588;DHT22;3835;48.850;8.938;2024-02-21T01:26:43;5.70;99.90
7588;DHT22;3835;48.850;8.938;2024-02-21T01:29:10;5.60;99.90
7588;DHT22;3835;48.850;8.938;2024-02-21T01:31:37;5.70;99.90
7588;DHT22;3835;48.850;8.938;2024-02-21T01:34:04;5.70;99.90
7588;DHT22;3835;48.850;8.938;2024-02-21T01:36:30;5.70;99.90
7588;DHT22;3835;48.850;8.938;2024-02-21T01:38:58;5.80;99.90
7588;DHT22;3835;48.850;8.938;2024-02-21T01:41:25;6.00;99.90
7588;DHT22;3835;48.850;8.938;2024-02-21T01:43:53;5.70;99.90
7588;DHT22;3835;48.850;8.938;2024-02-21T01:46:20;6.00;99.90
7588;DHT22;3835;48.850;8.938;2024-02-21T01:48:47;5.70;99.90
7588;DHT22;3835;48.850;8.938;2024-02-21T01:51:13;5.70;99.90
7588;DHT22;3835;48.850;8.938;2024-02-21T01:53:43;5.80;99.90
7588;DHT22;3835;48.850;8.938;2024-02-21T01:56:10;5.90;99.90
7588;DHT22;3835;48.850;8.938;2024-02-21T01:58:40;6.00;99.90
7588;DHT22;3835;48.850;8.938;2024-02-21T02:01:10;5.90;99.90
7588;DHT22;3835;48.850;8.938;2024-02-21T02:03:37;5.80;99.90
7588;DHT22;3835;48.850;8.938;2024-02-21T02:06:05;5.90;99.90
7588;DHT22;3835;48.850;8.938;2024-02-21T02:08:32;5.90;99.90
7588;DHT22;3835;48.850;8.938;2024-02-21T02:11:00;5.90;99.90
7588;DHT22;3835;48.850;8.938;2024-02-21T02:13:27;5.90;99.90
7588;DHT22;3835;48.850;8.938;2024-02-21T02:15:54;5.90;99.90
7588;DHT22;3835;48.850;8.938;2024-02-21T02:18:23;5.90;99.90
7588;DHT22;3835;48.850;8.938;2024-02-21T02:20:49;5.90;99.90
7588;DHT22;3835;48.850;8.938;2024-02-21T02:23:22;5.90;99.90
7588;DHT22;3835;48.850;8.938;2024-02-21T02:25:49;6.00;99.90
7588;DHT22;3835;48.850;8.938;2024-02-21T02:28:18;5.90;99.90
7588;DHT22;3835;48.850;8.938;2024-02-21T02:30:45;5.90;99.90
7588;DHT22;3835;48.850;8.938;2024-02-21T02:33:12;5.90;99.90
7588;DHT22;3835;48.850;8.938;2024-02-21T02:35:39;5.80;99.90
7588;DHT22;3835;48.850;8.938;2024-02-21T02:38:06;5.80;99.90
7588;DHT22;3835;48.850;8.938;2024-02-21T02:40:35;5.80;99.90
7588;DHT22;3835;48.850;8.938;2024-02-21T02:43:02;5.80;99.90
7588;DHT22;3835;48.850;8.938;2024-02-21T02:45:29;5.60;99.90
7588;DHT22;3835;48.850;8.938;2024-02-21T02:47:57;5.50;99.90
7588;DHT22;3835;48.850;8.938;2024-02-21T02:50:24;5.50;99.90
7588;DHT22;3835;48.850;8.938;2024-02-21T02:52:51;6.10;99.90
7588;DHT22;3835;48.850;8.938;2024-02-21T02:55:18;5.80;99.90
7588;DHT22;3835;48.850;8.938;2024-02-21T02:57:47;5.50;99.90
7588;DHT22;3835;48.850;8.938;2024-02-21T03:00:15;5.60;99.90
7588;DHT22;3835;48.850;8.938;2024-02-21T03:02:43;5.60;99.90
7588;DHT22;3835;48.850;8.938;2024-02-21T03:05:14;5.60;99.90
7588;DHT22;3835;48.850;8.938;2024-02-21T03:07:42;5.70;99.90
7588;DHT22;3835;48.850;8.938;2024-02-21T03:10:09;5.50;99.90
7588;DHT22;3835;48.850;8.938;2024-02-21T03:12:36;5.50;99.90
7588;DHT22;3835;48.850;8.938;2024-02-21T03:15:05;5.50;99.90
7588;DHT22;3835;48.850;8.938;2024-02-21T03:17:32;5.50;99.90
7588;DHT22;3835;48.850;8.938;2024-02-21T03:19:59;5.50;99.90
7588;DHT22;3835;48.850;8.938;2024-02-21T03:22:26;5.50;99.90
7588;DHT22;3835;48.850;8.938;2024-02-21T03:24:53;5.40;99.90
7588;DHT22;3835;48.850;8.938;2024-02-21T03:27:20;5.40;99.90
7588;DHT22;3835;48.850;8.938;2024-02-21T03:29:47;5.40;99.90
7588;DHT22;3835;48.850;8.938;2024-02-21T03:32:15;5.60;99.90
7588;DHT22;3835;48.850;8.938;2024-02-21T03:34:42;5.50;99.90
7588;DHT22;3835;48.850;8.938;2024-02-21T03:37:09;5.40;99.90
7588;DHT22;3835;48.850;8.938;2024-02-21T03:39:36;5.40;99.90
7588;DHT22;3835;48.850;8.938;2024-02-21T03:42:03;5.40;99.90
7588;DHT22;3835;48.850;8.938;2024-02-21T03:44:31;5.40;99.90
7588;DHT22;3835;48.850;8.938;2024-02-21T03:46:58;5.50;99.90
7588;DHT22;3835;48.850;8.938;2024-02-21T03:49:27;5.40;99.90
7588;DHT22;3835;48.850;8.938;2024-02-21T03:51:54;5.30;99.90
7588;DHT22;3835;48.850;8.938;2024-02-21T03:54:21;5.20;99.90
7588;DHT22;3835;48.850;8.938;2024-02-21T03:56:48;5.20;99.90
7588;DHT22;3835;48.850;8.938;2024-02-21T03:59:15;5.30;99.90
7588;DHT22;3835;48.850;8.938;2024-02-21T04:01:42;5.10;99.90
7588;DHT22;3835;48.850;8.938;2024-02-21T04:04:09;5.10;99.90
7588;DHT22;3835;48.850;8.938;2024-02-21T04:06:46;5.00;99.90
7588;DHT22;3835;48.850;8.938;2024-02-21T04:09:13;4.90;99.90
7588;DHT22;3835;48.850;8.938;2024-02-21T04:11:40;4.90;99.90
7588;DHT22;3835;48.850;8.938;2024-02-21T04:14:07;4.80;99.90
7588;DHT22;3835;48.850;8.938;2024-02-21T04:16:34;5.20;99.90
7588;DHT22;3835;48.850;8.938;2024-02-21T04:19:01;4.80;99.90
7588;DHT22;3835;48.850;8.938;2024-02-21T04:21:28;4.80;99.90
7588;DHT22;3835;48.850;8.938;2024-02-21T04:23:56;4.90;99.90
7588;DHT22;3835;48.850;8.938;2024-02-21T04:26:24;4.80;99.90
7588;DHT22;3835;48.850;8.938;2024-02-21T04:28:50;4.70;99.90
7588;DHT22;3835;48.850;8.938;2024-02-21T04:31:17;4.80;99.90
7588;DHT22;3835;48.850;8.938;2024-02-21T04:33:44;4.70;99.90
7588;DHT22;3835;48.850;8.938;2024-02-21T04:36:11;4.80;99.90
7588;DHT22;3835;48.850;8.938;2024-02-21T04:38:38;4.80;99.90
7588;DHT22;3835;48.850;8.938;2024-02-21T04:41:07;4.90;99.90
7588;DHT22;3835;48.850;8.938;2024-02-21T04:43:34;4.70;99.90
7588;DHT22;3835;48.850;8.938;2024-02-21T04:46:01;4.70;99.90
7588;DHT22;3835;48.850;8.938;2024-02-21T04:48:28;4.60;99.90
7588;DHT22;3835;48.850;8.938;2024-02-21T04:50:55;4.60;99.90
7588;DHT22;3835;48.850;8.938;2024-02-21T04:53:22;4.60;99.90
7588;DHT22;3835;48.850;8.938;2024-02-21T04:55:49;4.60;99.90
7588;DHT22;3835;48.850;8.938;2024-02-21T04:58:17;4.50;99.90
7588;DHT22;3835;48.850;8.938;2024-02-21T05:00:44;4.40;99.90
7588;DHT22;3835;48.850;8.938;2024-02-21T05:03:11;4.40;99.90
7588;DHT22;3835;48.850;8.938;2024-02-21T05:05:38;4.30;99.90
7588;DHT22;3835;48.850;8.938;2024-02-21T05:08:05;4.30;99.90
7588;DHT22;3835;48.850;8.938;2024-02-21T05:10:32;4.30;99.90
7588;DHT22;3835;48.850;8.938;2024-02-21T05:12:59;4.30;99.90
7588;DHT22;3835;48.850;8.938;2024-02-21T05:15:27;4.30;99.90
7588;DHT22;3835;48.850;8.938;2024-02-21T05:17:54;4.30;99.90
7588;DHT22;3835;48.850;8.938;2024-02-21T05:20:21;4.30;99.90
7588;DHT22;3835;48.850;8.938;2024-02-21T05:22:50;4.70;99.90
7588;DHT22;3835;48.850;8.938;2024-02-21T05:25:16;4.30;99.90
7588;DHT22;3835;48.850;8.938;2024-02-21T05:27:43;4.40;99.90
7588;DHT22;3835;48.850;8.938;2024-02-21T05:30:12;4.50;99.90
7588;DHT22;3835;48.850;8.938;2024-02-21T05:32:40;4.30;99.90
7588;DHT22;3835;48.850;8.938;2024-02-21T05:35:07;4.40;99.90
7588;DHT22;3835;48.850;8.938;2024-02-21T05:37:34;4.40;99.90
7588;DHT22;3835;48.850;8.938;2024-02-21T05:40:01;4.70;99.90
7588;DHT22;3835;48.850;8.938;2024-02-21T05:42:28;4.50;99.90
7588;DHT22;3835;48.850;8.938;2024-02-21T05:44:55;4.80;99.90
7588;DHT22;3835;48.850;8.938;2024-02-21T05:47:21;4.80;99.90
7588;DHT22;3835;48.850;8.938;2024-02-21T05:49:50;4.50;99.90
7588;DHT22;3835;48.850;8.938;2024-02-21T05:52:19;4.40;99.90
7588;DHT22;3835;48.850;8.938;2024-02-21T05:54:45;4.40;99.90
7588;DHT22;3835;48.850;8.938;2024-02-21T05:57:12;4.30;99.90
7588;DHT22;3835;48.850;8.938;2024-02-21T05:59:39;4.20;99.90
7588;DHT22;3835;48.850;8.938;2024-02-21T06:02:07;4.70;99.90
7588;DHT22;3835;48.850;8.938;2024-02-21T06:04:34;4.20;99.90
7588;DHT22;3835;48.850;8.938;2024-02-21T06:07:02;4.60;99.90
7588;DHT22;3835;48.850;8.938;2024-02-21T06:09:29;3.90;99.90
7588;DHT22;3835;48.850;8.938;2024-02-21T06:11:57;3.90;99.90
7588;DHT22;3835;48.850;8.938;2024-02-21T06:14:24;3.80;99.90
7588;DHT22;3835;48.850;8.938;2024-02-21T06:16:51;3.50;99.90
7588;DHT22;3835;48.850;8.938;2024-02-21T06:19:17;3.70;99.90
7588;DHT22;3835;48.850;8.938;2024-02-21T06:21:44;3.80;99.90
7588;DHT22;3835;48.850;8.938;2024-02-21T06:24:12;4.10;99.90
7588;DHT22;3835;48.850;8.938;2024-02-21T06:26:40;3.60;99.90
7588;DHT22;3835;48.850;8.938;2024-02-21T06:29:07;3.70;99.90
7588;DHT22;3835;48.850;8.938;2024-02-21T06:31:35;4.10;99.90
7588;DHT22;3835;48.850;8.938;2024-02-21T06:34:02;3.80;99.90
7588;DHT22;3835;48.850;8.938;2024-02-21T06:36:29;3.70;99.90
7588;DHT22;3835;48.850;8.938;2024-02-21T06:38:56;3.70;99.90
7588;DHT22;3835;48.850;8.938;2024-02-21T06:41:25;4.10;99.90
7588;DHT22;3835;48.850;8.938;2024-02-21T06:43:52;3.90;99.90
7588;DHT22;3835;48.850;8.938;2024-02-21T06:46:25;4.00;99.90
7588;DHT22;3835;48.850;8.938;2024-02-21T06:48:54;4.00;99.90
7588;DHT22;3835;48.850;8.938;2024-02-21T06:51:22;4.40;99.90
7588;DHT22;3835;48.850;8.938;2024-02-21T06:53:48;4.10;99.90
7588;DHT22;3835;48.850;8.938;2024-02-21T06:56:15;4.30;99.90
7588;DHT22;3835;48.850;8.938;2024-02-21T06:58:43;4.40;99.90
7588;DHT22;3835;48.850;8.938;2024-02-21T07:01:11;4.70;99.90
7588;DHT22;3835;48.850;8.938;2024-02-21T07:03:38;4.70;99.90
7588;DHT22;3835;48.850;8.938;2024-02-21T07:06:05;4.50;99.90
7588;DHT22;3835;48.850;8.938;2024-02-21T07:08:35;4.60;99.90
7588;DHT22;3835;48.850;8.938;2024-02-21T07:11:01;4.70;99.90
7588;DHT22;3835;48.850;8.938;2024-02-21T07:13:28;4.70;99.90
7588;DHT22;3835;48.850;8.938;2024-02-21T07:15:56;4.80;99.90
7588;DHT22;3835;48.850;8.938;2024-02-21T07:18:23;5.00;99.90
7588;DHT22;3835;48.850;8.938;2024-02-21T07:20:50;5.20;99.90
7588;DHT22;3835;48.850;8.938;2024-02-21T07:23:17;5.20;99.90
7588;DHT22;3835;48.850;8.938;2024-02-21T07:25:44;5.50;99.90
7588;DHT22;3835;48.850;8.938;2024-02-21T07:28:11;5.70;99.90
7588;DHT22;3835;48.850;8.938;2024-02-21T07:30:39;5.80;99.90
7588;DHT22;3835;48.850;8.938;2024-02-21T07:33:07;6.10;99.90
7588;DHT22;3835;48.850;8.938;2024-02-21T07:35:34;6.20;99.90
7588;DHT22;3835;48.850;8.938;2024-02-21T07:38:03;6.30;99.90
7588;DHT22;3835;48.850;8.938;2024-02-21T07:40:30;6.30;99.90
7588;DHT22;3835;48.850;8.938;2024-02-21T07:42:57;6.20;99.90
7588;DHT22;3835;48.850;8.938;2024-02-21T07:45:24;6.30;99.90
7588;DHT22;3835;48.850;8.938;2024-02-21T07:47:52;6.30;99.90
7588;DHT22;3835;48.850;8.938;2024-02-21T07:50:20;6.50;99.90
7588;DHT22;3835;48.850;8.938;2024-02-21T07:52:47;6.60;99.90
7588;DHT22;3835;48.850;8.938;2024-02-21T07:55:13;6.60;99.90
7588;DHT22;3835;48.850;8.938;2024-02-21T07:57:41;6.80;99.90
7588;DHT22;3835;48.850;8.938;2024-02-21T08:00:08;6.80;99.90
7588;DHT22;3835;48.850;8.938;2024-02-21T08:02:35;6.80;99.90
7588;DHT22;3835;48.850;8.938;2024-02-21T08:05:02;6.80;99.90
7588;DHT22;3835;48.850;8.938;2024-02-21T08:07:31;6.90;99.90
7588;DHT22;3835;48.850;8.938;2024-02-21T08:09:58;7.00;99.90
7588;DHT22;3835;48.850;8.938;2024-02-21T08:12:25;7.20;99.90
7588;DHT22;3835;48.850;8.938;2024-02-21T08:14:52;7.20;99.90
7588;DHT22;3835;48.850;8.938;2024-02-21T08:17:19;7.20;99.90
7588;DHT22;3835;48.850;8.938;2024-02-21T08:19:46;7.30;99.90
7588;DHT22;3835;48.850;8.938;2024-02-21T08:22:14;7.50;99.90
7588;DHT22;3835;48.850;8.938;2024-02-21T08:24:42;7.50;99.90
7588;DHT22;3835;48.850;8.938;2024-02-21T08:27:09;7.50;99.90
7588;DHT22;3835;48.850;8.938;2024-02-21T08:29:36;7.60;99.90
7588;DHT22;3835;48.850;8.938;2024-02-21T08:32:03;7.70;99.90
7588;DHT22;3835;48.850;8.938;2024-02-21T08:34:30;7.80;99.90
7588;DHT22;3835;48.850;8.938;2024-02-21T08:36:59;7.80;99.90
7588;DHT22;3835;48.850;8.938;2024-02-21T08:39:26;7.80;99.90
7588;DHT22;3835;48.850;8.938;2024-02-21T08:41:55;7.90;99.90
7588;DHT22;3835;48.850;8.938;2024-02-21T08:44:22;8.10;99.90
7588;DHT22;3835;48.850;8.938;2024-02-21T08:46:50;8.00;99.90
7588;DHT22;3835;48.850;8.938;2024-02-21T08:49:16;8.00;99.90
7588;DHT22;3835;48.850;8.938;2024-02-21T08:51:43;8.10;99.90
7588;DHT22;3835;48.850;8.938;2024-02-21T08:54:11;8.20;99.90
7588;DHT22;3835;48.850;8.938;2024-02-21T08:56:38;8.20;99.90
7588;DHT22;3835;48.850;8.938;2024-02-21T08:59:06;8.30;99.90
7588;DHT22;3835;48.850;8.938;2024-02-21T09:01:33;8.40;99.90
7588;DHT22;3835;48.850;8.938;2024-02-21T09:04:00;8.50;99.90
7588;DHT22;3835;48.850;8.938;2024-02-21T09:06:28;8.50;99.90
7588;DHT22;3835;48.850;8.938;2024-02-21T09:08:56;8.60;99.90
7588;DHT22;3835;48.850;8.938;2024-02-21T09:11:23;8.50;99.90
7588;DHT22;3835;48.850;8.938;2024-02-21T09:13:50;8.70;99.90
7588;DHT22;3835;48.850;8.938;2024-02-21T09:16:18;8.70;99.90
7588;DHT22;3835;48.850;8.938;2024-02-21T09:18:45;8.80;99.90
7588;DHT22;3835;48.850;8.938;2024-02-21T09:21:12;8.60;99.90
7588;DHT22;3835;48.850;8.938;2024-02-21T09:23:39;8.90;99.90
7588;DHT22;3835;48.850;8.938;2024-02-21T09:26:06;9.10;99.90
7588;DHT22;3835;48.850;8.938;2024-02-21T09:28:35;9.10;99.90
7588;DHT22;3835;48.850;8.938;2024-02-21T09:31:02;9.20;99.90
7588;DHT22;3835;48.850;8.938;2024-02-21T09:33:31;9.30;99.90
7588;DHT22;3835;48.850;8.938;2024-02-21T09:35:57;9.20;99.90
7588;DHT22;3835;48.850;8.938;2024-02-21T09:38:25;9.50;99.90
7588;DHT22;3835;48.850;8.938;2024-02-21T09:40:59;9.50;99.90
7588;DHT22;3835;48.850;8.938;2024-02-21T09:43:26;9.60;99.90
7588;DHT22;3835;48.850;8.938;2024-02-21T09:45:56;9.60;99.90
7588;DHT22;3835;48.850;8.938;2024-02-21T09:48:39;9.70;99.90
7588;DHT22;3835;48.850;8.938;2024-02-21T09:51:10;9.70;99.90
7588;DHT22;3835;48.850;8.938;2024-02-21T09:53:38;10.20;99.90
7588;DHT22;3835;48.850;8.938;2024-02-21T09:56:08;9.70;99.90
7588;DHT22;3835;48.850;8.938;2024-02-21T09:58:35;9.80;99.90
7588;DHT22;3835;48.850;8.938;2024-02-21T10:01:03;10.10;99.90
7588;DHT22;3835;48.850;8.938;2024-02-21T10:03:33;10.20;99.90
7588;DHT22;3835;48.850;8.938;2024-02-21T10:06:00;10.00;99.90
7588;DHT22;3835;48.850;8.938;2024-02-21T10:08:28;10.50;99.90
7588;DHT22;3835;48.850;8.938;2024-02-21T10:10:54;10.60;99.90
7588;DHT22;3835;48.850;8.938;2024-02-21T10:13:25;10.40;99.90
7588;DHT22;3835;48.850;8.938;2024-02-21T10:16:03;10.70;99.90
7588;DHT22;3835;48.850;8.938;2024-02-21T10:18:30;10.50;99.90
7588;DHT22;3835;48.850;8.938;2024-02-21T10:21:03;10.40;99.90
7588;DHT22;3835;48.850;8.938;2024-02-21T10:23:44;10.60;99.90
7588;DHT22;3835;48.850;8.938;2024-02-21T10:26:11;10.70;99.90
7588;DHT22;3835;48.850;8.938;2024-02-21T10:28:38;10.90;99.90
7588;DHT22;3835;48.850;8.938;2024-02-21T10:31:08;10.70;99.90
7588;DHT22;3835;48.850;8.938;2024-02-21T10:33:37;10.90;99.90
7588;DHT22;3835;48.850;8.938;2024-02-21T10:36:09;10.90;99.90
7588;DHT22;3835;48.850;8.938;2024-02-21T10:38:37;10.90;99.90
7588;DHT22;3835;48.850;8.938;2024-02-21T10:41:05;11.10;99.90
7588;DHT22;3835;48.850;8.938;2024-02-21T10:43:38;11.30;99.90
7588;DHT22;3835;48.850;8.938;2024-02-21T10:46:06;11.40;99.90
7588;DHT22;3835;48.850;8.938;2024-02-21T10:48:41;11.50;99.90
7588;DHT22;3835;48.850;8.938;2024-02-21T10:51:15;11.50;99.90
7588;DHT22;3835;48.850;8.938;2024-02-21T10:53:45;11.40;99.90
7588;DHT22;3835;48.850;8.938;2024-02-21T10:56:24;11.30;99.90
7588;DHT22;3835;48.850;8.938;2024-02-21T10:58:53;11.60;99.90
7588;DHT22;3835;48.850;8.938;2024-02-21T11:01:21;11.40;99.90
7588;DHT22;3835;48.850;8.938;2024-02-21T11:03:52;11.60;99.90
7588;DHT22;3835;48.850;8.938;2024-02-21T11:06:22;11.60;99.90
7588;DHT22;3835;48.850;8.938;2024-02-21T11:09:00;11.80;99.90
7588;DHT22;3835;48.850;8.938;2024-02-21T11:11:28;11.90;99.90
7588;DHT22;3835;48.850;8.938;2024-02-21T11:14:04;11.90;99.90
7588;DHT22;3835;48.850;8.938;2024-02-21T11:16:36;12.10;99.90
7588;DHT22;3835;48.850;8.938;2024-02-21T11:19:05;12.20;99.90
7588;DHT22;3835;48.850;8.938;2024-02-21T11:21:37;12.10;99.90
7588;DHT22;3835;48.850;8.938;2024-02-21T11:24:04;12.00;99.90
7588;DHT22;3835;48.850;8.938;2024-02-21T11:26:32;12.10;99.90
7588;DHT22;3835;48.850;8.938;2024-02-21T11:29:00;12.20;99.90
7588;DHT22;3835;48.850;8.938;2024-02-21T11:31:38;12.10;99.90
7588;DHT22;3835;48.850;8.938;2024-02-21T11:34:08;12.20;99.90
7588;DHT22;3835;48.850;8.938;2024-02-21T11:36:46;12.20;99.90
7588;DHT22;3835;48.850;8.938;2024-02-21T11:39:21;12.20;99.90
7588;DHT22;3835;48.850;8.938;2024-02-21T11:42:02;12.20;99.90
7588;DHT22;3835;48.850;8.938;2024-02-21T11:44:30;12.30;99.90
7588;DHT22;3835;48.850;8.938;2024-02-21T11:46:56;12.20;99.90
7588;DHT22;3835;48.850;8.938;2024-02-21T11:49:25;12.30;99.90
7588;DHT22;3835;48.850;8.938;2024-02-21T11:51:59;12.40;99.90
7588;DHT22;3835;48.850;8.938;2024-02-21T11:54:26;12.20;99.90
7588;DHT22;3835;48.850;8.938;2024-02-21T11:56:53;12.40;99.90
7588;DHT22;3835;48.850;8.938;2024-02-21T11:59:20;12.70;99.90
7588;DHT22;3835;48.850;8.938;2024-02-21T12:01:48;12.90;99.90
7588;DHT22;3835;48.850;8.938;2024-02-21T12:04:15;12.90;99.90
7588;DHT22;3835;48.850;8.938;2024-02-21T12:06:45;13.20;99.90
7588;DHT22;3835;48.850;8.938;2024-02-21T12:09:15;12.50;99.90
7588;DHT22;3835;48.850;8.938;2024-02-21T12:11:43;12.70;99.90
7588;DHT22;3835;48.850;8.938;2024-02-21T12:14:10;12.50;99.90
7588;DHT22;3835;48.850;8.938;2024-02-21T12:16:37;12.70;99.90
7588;DHT22;3835;48.850;8.938;2024-02-21T12:19:04;12.50;99.90
7588;DHT22;3835;48.850;8.938;2024-02-21T12:21:32;12.50;99.90
7588;DHT22;3835;48.850;8.938;2024-02-21T12:24:12;12.20;99.90
7588;DHT22;3835;48.850;8.938;2024-02-21T12:26:41;12.30;99.90
7588;DHT22;3835;48.850;8.938;2024-02-21T12:29:08;12.40;99.90
7588;DHT22;3835;48.850;8.938;2024-02-21T12:31:36;12.60;99.90
7588;DHT22;3835;48.850;8.938;2024-02-21T12:34:03;12.80;99.90
7588;DHT22;3835;48.850;8.938;2024-02-21T12:36:30;12.90;99.90
7588;DHT22;3835;48.850;8.938;2024-02-21T12:38:56;13.00;99.90
7588;DHT22;3835;48.850;8.938;2024-02-21T12:41:23;13.20;99.90
7588;DHT22;3835;48.850;8.938;2024-02-21T12:43:53;13.10;99.90
7588;DHT22;3835;48.850;8.938;2024-02-21T12:46:21;12.80;99.90
7588;DHT22;3835;48.850;8.938;2024-02-21T12:48:49;12.90;99.90
7588;DHT22;3835;48.850;8.938;2024-02-21T12:51:16;13.00;99.90
7588;DHT22;3835;48.850;8.938;2024-02-21T12:53:46;13.00;99.90
7588;DHT22;3835;48.850;8.938;2024-02-21T12:56:15;13.00;99.90
7588;DHT22;3835;48.850;8.938;2024-02-21T12:58:42;13.00;99.90
7588;DHT22;3835;48.850;8.938;2024-02-21T13:01:10;13.10;99.90
7588;DHT22;3835;48.850;8.938;2024-02-21T13:03:37;13.10;99.90
7588;DHT22;3835;48.850;8.938;2024-02-21T13:06:05;13.20;99.90
7588;DHT22;3835;48.850;8.938;2024-02-21T13:08:32;13.20;99.90
7588;DHT22;3835;48.850;8.938;2024-02-21T13:11:00;13.20;99.90
7588;DHT22;3835;48.850;8.938;2024-02-21T13:13:27;13.10;99.90
7588;DHT22;3835;48.850;8.938;2024-02-21T13:15:53;13.20;99.90
7588;DHT22;3835;48.850;8.938;2024-02-21T13:18:22;13.20;99.90
7588;DHT22;3835;48.850;8.938;2024-02-21T13:20:48;13.20;99.90
7588;DHT22;3835;48.850;8.938;2024-02-21T13:23:15;13.10;99.90
7588;DHT22;3835;48.850;8.938;2024-02-21T13:25:42;13.10;99.90
7588;DHT22;3835;48.850;8.938;2024-02-21T13:28:11;13.20;99.90
7588;DHT22;3835;48.850;8.938;2024-02-21T13:30:39;13.00;99.90
7588;DHT22;3835;48.850;8.938;2024-02-21T13:33:06;12.80;99.90
7588;DHT22;3835;48.850;8.938;2024-02-21T13:35:34;12.70;99.90
7588;DHT22;3835;48.850;8.938;2024-02-21T13:38:02;12.50;99.90
7588;DHT22;3835;48.850;8.938;2024-02-21T13:40:29;12.30;99.90
7588;DHT22;3835;48.850;8.938;2024-02-21T13:42:57;12.20;99.90
7588;DHT22;3835;48.850;8.938;2024-02-21T13:45:23;12.10;99.90
7588;DHT22;3835;48.850;8.938;2024-02-21T13:47:50;12.10;99.90
7588;DHT22;3835;48.850;8.938;2024-02-21T13:50:18;12.60;99.90
7588;DHT22;3835;48.850;8.938;2024-02-21T13:52:46;11.90;99.90
7588;DHT22;3835;48.850;8.938;2024-02-21T13:55:13;11.70;99.90
7588;DHT22;3835;48.850;8.938;2024-02-21T13:57:40;11.80;99.90
7588;DHT22;3835;48.850;8.938;2024-02-21T14:00:08;12.20;99.90
7588;DHT22;3835;48.850;8.938;2024-02-21T14:02:36;11.60;99.90
7588;DHT22;3835;48.850;8.938;2024-02-21T14:05:03;11.60;99.90
7588;DHT22;3835;48.850;8.938;2024-02-21T14:07:31;11.60;99.90
7588;DHT22;3835;48.850;8.938;2024-02-21T14:10:00;11.50;99.90
7588;DHT22;3835;48.850;8.938;2024-02-21T14:12:26;11.40;99.90
7588;DHT22;3835;48.850;8.938;2024-02-21T14:14:53;11.30;99.90
7588;DHT22;3835;48.850;8.938;2024-02-21T14:17:22;11.50;99.90
7588;DHT22;3835;48.850;8.938;2024-02-21T14:19:50;11.30;99.90
7588;DHT22;3835;48.850;8.938;2024-02-21T14:22:17;11.20;99.90
7588;DHT22;3835;48.850;8.938;2024-02-21T14:24:44;11.10;99.90
7588;DHT22;3835;48.850;8.938;2024-02-21T14:27:12;11.10;99.90
7588;DHT22;3835;48.850;8.938;2024-02-21T14:29:39;11.10;99.90
7588;DHT22;3835;48.850;8.938;2024-02-21T14:32:06;11.20;99.90
7588;DHT22;3835;48.850;8.938;2024-02-21T14:34:35;11.00;99.90
7588;DHT22;3835;48.850;8.938;2024-02-21T14:37:02;10.90;99.90
7588;DHT22;3835;48.850;8.938;2024-02-21T14:39:29;10.90;99.90
7588;DHT22;3835;48.850;8.938;2024-02-21T14:41:57;10.90;99.90
7588;DHT22;3835;48.850;8.938;2024-02-21T14:44:26;10.90;99.90
7588;DHT22;3835;48.850;8.938;2024-02-21T14:46:54;10.90;99.90
7588;DHT22;3835;48.850;8.938;2024-02-21T14:49:20;10.80;99.90
7588;DHT22;3835;48.850;8.938;2024-02-21T14:51:47;10.90;99.90
7588;DHT22;3835;48.850;8.938;2024-02-21T14:54:14;10.80;99.90
7588;DHT22;3835;48.850;8.938;2024-02-21T14:56:41;10.70;99.90
7588;DHT22;3835;48.850;8.938;2024-02-21T14:59:09;10.70;99.90
7588;DHT22;3835;48.850;8.938;2024-02-21T15:01:37;10.90;99.90
7588;DHT22;3835;48.850;8.938;2024-02-21T15:04:04;10.80;99.90
7588;DHT22;3835;48.850;8.938;2024-02-21T15:06:32;11.20;99.90
7588;DHT22;3835;48.850;8.938;2024-02-21T15:09:01;11.00;99.90
7588;DHT22;3835;48.850;8.938;2024-02-21T15:11:29;10.90;99.90
7588;DHT22;3835;48.850;8.938;2024-02-21T15:13:55;10.90;99.90
7588;DHT22;3835;48.850;8.938;2024-02-21T15:16:22;10.80;99.90
7588;DHT22;3835;48.850;8.938;2024-02-21T15:18:50;11.00;99.90
7588;DHT22;3835;48.850;8.938;2024-02-21T15:21:17;10.90;99.90
7588;DHT22;3835;48.850;8.938;2024-02-21T15:23:44;10.80;99.90
7588;DHT22;3835;48.850;8.938;2024-02-21T15:26:11;10.90;99.90
7588;DHT22;3835;48.850;8.938;2024-02-21T15:28:39;10.70;99.90
7588;DHT22;3835;48.850;8.938;2024-02-21T15:31:06;10.60;99.90
7588;DHT22;3835;48.850;8.938;2024-02-21T15:33:33;10.60;99.90
7588;DHT22;3835;48.850;8.938;2024-02-21T15:36:01;10.60;99.90
7588;DHT22;3835;48.850;8.938;2024-02-21T15:38:29;10.40;99.90
7588;DHT22;3835;48.850;8.938;2024-02-21T15:40:56;10.40;99.90
7588;DHT22;3835;48.850;8.938;2024-02-21T15:43:23;10.50;99.90
7588;DHT22;3835;48.850;8.938;2024-02-21T15:45:52;10.50;99.90
7588;DHT22;3835;48.850;8.938;2024-02-21T15:48:19;10.50;99.90
7588;DHT22;3835;48.850;8.938;2024-02-21T15:50:48;10.60;99.90
7588;DHT22;3835;48.850;8.938;2024-02-21T15:53:16;10.50;99.90
7588;DHT22;3835;48.850;8.938;2024-02-21T15:55:43;10.50;99.90
7588;DHT22;3835;48.850;8.938;2024-02-21T15:58:11;10.40;99.90
7588;DHT22;3835;48.850;8.938;2024-02-21T16:00:38;10.30;99.90
7588;DHT22;3835;48.850;8.938;2024-02-21T16:03:05;10.30;99.90
7588;DHT22;3835;48.850;8.938;2024-02-21T16:05:32;10.30;99.90
7588;DHT22;3835;48.850;8.938;2024-02-21T16:07:59;10.40;99.90
7588;DHT22;3835;48.850;8.938;2024-02-21T16:10:27;10.30;99.90
7588;DHT22;3835;48.850;8.938;2024-02-21T16:12:54;10.30;99.90
7588;DHT22;3835;48.850;8.938;2024-02-21T16:15:21;10.30;99.90